Time;durP1;ratioP1;P1;durP2;ratioP2;P2;SDS_P1;SDS_P2;PMS_P1;PMS_P2;Temp;Humidity;BMP_temperature;BMP_pressure;BME280_temperature;BME280_humidity;BME280_pressure;Samples;Min_cycle;Max_cycle;Signal;HPM_P1;HPM_P2
2023/01/20 00:01:36;;;;;;;5.00;2.70;;;0.20;99.90;;;;;;6282093;22;20015;-75
2023/01/20 00:04:02;;;;;;;4.57;2.60;;;0.70;99.90;;;;;;6255050;22;20038;-75
2023/01/20 00:06:28;;;;;;;6.57;2.60;;;0.00;99.90;;;;;;6287097;22;20245;-77
2023/01/20 00:08:59;;;;;;;5.55;2.70;;;1.20;99.90;;;;;;6282040;22;20533;-76
2023/01/20 00:11:25;;;;;;;6.15;2.97;;;0.00;99.90;;;;;;6308179;22;20221;-76
2023/01/20 00:13:56;;;;;;;5.00;3.08;;;0.10;99.90;;;;;;6282791;22;20015;-76
2023/01/20 00:16:22;;;;;;;4.95;2.95;;;2.20;99.90;;;;;;6309245;22;20015;-75
2023/01/20 00:18:51;;;;;;;6.78;3.78;;;2.70;99.90;;;;;;6310599;22;20074;-76
2023/01/20 00:21:17;;;;;;;6.53;3.78;;;1.20;99.90;;;;;;6282449;22;20473;-75
2023/01/20 00:23:43;;;;;;;6.82;3.38;;;0.40;99.90;;;;;;6281442;22;20019;-76
2023/01/20 00:26:15;;;;;;;5.65;3.47;;;0.80;99.90;;;;;;6283938;22;20011;-75
2023/01/20 00:28:41;;;;;;;7.68;3.38;;;0.40;99.90;;;;;;6308966;22;20346;-75
2023/01/20 00:31:20;;;;;;;6.88;3.83;;;0.30;99.90;;;;;;6283631;22;20070;-77
2023/01/20 00:33:47;;;;;;;7.00;3.95;;;-0.30;99.90;;;;;;6306874;22;20007;-75
2023/01/20 00:36:14;;;;;;;5.13;3.40;;;1.60;99.90;;;;;;6307613;22;20102;-75
2023/01/20 00:38:40;;;;;;;6.03;3.90;;;0.40;99.90;;;;;;6254387;22;20696;-76
2023/01/20 00:41:06;;;;;;;5.93;3.85;;;0.20;99.90;;;;;;6284214;22;20039;-75
2023/01/20 00:43:32;;;;;;;7.78;4.25;;;2.70;99.90;;;;;;6308664;22;20018;-77
2023/01/20 00:45:58;;;;;;;6.93;3.58;;;0.70;99.90;;;;;;6281578;22;20351;-75
2023/01/20 00:48:24;;;;;;;7.38;4.57;;;2.80;99.90;;;;;;6283469;22;20011;-76
2023/01/20 00:50:52;;;;;;;7.15;4.90;;;0.90;99.90;;;;;;6256573;22;20007;-75
2023/01/20 00:53:18;;;;;;;9.20;4.55;;;0.40;99.90;;;;;;6284381;22;20007;-77
2023/01/20 00:55:44;;;;;;;10.60;5.35;;;-0.10;99.90;;;;;;6308872;22;20050;-75
2023/01/20 00:58:09;;;;;;;9.43;5.32;;;1.30;99.90;;;;;;6286587;22;20071;-75
2023/01/20 01:00:35;;;;;;;9.50;5.40;;;-0.30;99.90;;;;;;6311653;22;20015;-74
2023/01/20 01:03:04;;;;;;;9.40;5.28;;;2.60;99.90;;;;;;6285489;22;20320;-77
2023/01/20 01:05:31;;;;;;;8.73;5.38;;;0.20;99.90;;;;;;6309316;22;20066;-76
2023/01/20 01:07:57;;;;;;;9.15;5.57;;;1.10;99.90;;;;;;6284311;22;20089;-76
2023/01/20 01:10:22;;;;;;;9.32;5.28;;;2.70;99.90;;;;;;6259865;22;20011;-78
2023/01/20 01:12:48;;;;;;;9.38;5.85;;;0.50;99.90;;;;;;6283317;22;20086;-75
2023/01/20 01:15:14;;;;;;;15.57;6.65;;;0.10;99.90;;;;;;6310170;22;20205;-76
2023/01/20 01:17:42;;;;;;;10.93;6.97;;;0.10;99.90;;;;;;6283374;22;20381;-76
2023/01/20 01:20:10;;;;;;;15.00;8.10;;;0.20;99.90;;;;;;6309373;22;20630;-74
2023/01/20 01:22:36;;;;;;;13.70;7.35;;;0.00;99.90;;;;;;6257553;22;20019;-75
2023/01/20 01:25:01;;;;;;;17.20;8.27;;;3.00;99.90;;;;;;6283523;22;20019;-77
2023/01/20 01:27:28;;;;;;;20.13;8.68;;;-0.30;99.90;;;;;;6259861;22;20050;-74
2023/01/20 01:29:54;;;;;;;17.45;8.30;;;0.30;99.90;;;;;;6308391;22;20045;-76
2023/01/20 01:32:23;;;;;;;19.20;9.60;;;2.90;99.90;;;;;;6310276;22;20290;-75
2023/01/20 01:34:49;;;;;;;18.67;9.20;;;1.30;99.90;;;;;;6258667;22;20015;-76
2023/01/20 01:37:14;;;;;;;18.85;8.23;;;0.00;99.90;;;;;;6285550;22;20029;-77
2023/01/20 01:39:40;;;;;;;15.73;8.05;;;2.30;99.90;;;;;;6283076;22;20179;-77
2023/01/20 01:42:11;;;;;;;15.75;8.15;;;1.90;99.90;;;;;;6257338;22;20019;-76
2023/01/20 01:44:58;;;;;;;13.23;7.53;;;0.50;99.90;;;;;;6309366;22;20054;-76
2023/01/20 01:47:23;;;;;;;17.98;8.23;;;0.10;99.90;;;;;;6281220;22;20057;-76
2023/01/20 01:49:50;;;;;;;12.73;7.57;;;-0.20;99.90;;;;;;6257958;22;20011;-76
2023/01/20 01:55:32;;;;;;;15.95;7.22;;;0.40;99.90;;;;;;6203315;22;20011;-76
2023/01/20 01:58:00;;;;;;;17.70;8.10;;;0.60;99.90;;;;;;6283640;22;20054;-79
2023/01/20 02:00:26;;;;;;;21.77;8.85;;;2.90;99.90;;;;;;6284600;22;20037;-77
2023/01/20 02:02:53;;;;;;;18.75;9.25;;;3.00;99.90;;;;;;6282937;22;20074;-79
2023/01/20 02:05:20;;;;;;;22.42;10.00;;;0.40;99.90;;;;;;6284469;22;20029;-77
2023/01/20 02:07:47;;;;;;;20.45;9.20;;;2.70;99.90;;;;;;6284666;22;20202;-79
2023/01/20 02:10:14;;;;;;;22.00;9.82;;;0.50;99.90;;;;;;6309240;22;20027;-77
2023/01/20 02:12:43;;;;;;;17.63;8.35;;;1.50;99.90;;;;;;6284204;22;20197;-76
2023/01/20 02:15:12;;;;;;;23.52;10.13;;;0.60;99.90;;;;;;6284414;22;20007;-79
2023/01/20 02:17:54;;;;;;;16.17;8.40;;;0.40;99.90;;;;;;6258608;22;20179;-75
2023/01/20 02:20:53;;;;;;;25.63;10.45;;;0.40;99.90;;;;;;6284887;22;20106;-76
2023/01/20 02:23:37;;;;;;;19.60;9.23;;;0.60;99.90;;;;;;6283539;22;20245;-76
2023/01/20 02:26:29;;;;;;;27.35;12.85;;;0.60;99.90;;;;;;6284679;22;20011;-75
2023/01/20 02:28:58;;;;;;;20.83;10.20;;;0.10;99.90;;;;;;6285611;22;20023;-76
2023/01/20 02:31:24;;;;;;;28.10;11.25;;;1.80;99.90;;;;;;6284340;22;20042;-78
2023/01/20 02:34:12;;;;;;;26.25;11.52;;;2.00;99.90;;;;;;6310846;22;20294;-78
2023/01/20 02:36:40;;;;;;;33.95;12.40;;;1.30;99.90;;;;;;6311073;22;20019;-77
2023/01/20 02:39:18;;;;;;;29.08;12.48;;;2.60;99.90;;;;;;6310317;22;20076;-77
2023/01/20 02:42:02;;;;;;;28.50;12.80;;;0.60;99.90;;;;;;6282368;22;20007;-77
2023/01/20 02:44:43;;;;;;;32.95;13.40;;;0.50;99.90;;;;;;6309496;22;20527;-77
2023/01/20 02:47:24;;;;;;;28.88;13.05;;;0.90;99.90;;;;;;6308627;22;20011;-77
2023/01/20 02:50:20;;;;;;;30.73;13.45;;;0.70;99.90;;;;;;6282783;22;20046;-74
2023/01/20 02:52:50;;;;;;;30.75;13.65;;;0.60;99.90;;;;;;6280385;22;20003;-78
2023/01/20 02:55:32;;;;;;;34.53;15.32;;;3.30;99.90;;;;;;6283030;22;20015;-74
2023/01/20 02:58:04;;;;;;;30.92;13.10;;;0.60;99.90;;;;;;6281505;22;20049;-75
2023/01/20 03:00:46;;;;;;;29.85;13.75;;;2.00;99.90;;;;;;6310476;22;20519;-74
2023/01/20 03:03:16;;;;;;;28.88;12.77;;;0.80;99.90;;;;;;6309878;22;20019;-75
2023/01/20 03:05:50;;;;;;;29.13;13.52;;;0.70;99.90;;;;;;6309350;22;20026;-76
2023/01/20 03:08:17;;;;;;;33.47;14.88;;;1.80;99.90;;;;;;6288135;22;20022;-75
2023/01/20 03:10:45;;;;;;;27.48;13.23;;;2.40;99.90;;;;;;6264859;22;20006;-75
2023/01/20 03:13:27;;;;;;;27.02;12.93;;;3.00;99.90;;;;;;6289495;22;20036;-77
2023/01/20 03:16:00;;;;;;;28.13;14.07;;;1.00;99.90;;;;;;6313504;22;20006;-76
2023/01/20 03:18:28;;;;;;;32.42;13.43;;;2.70;99.90;;;;;;6289691;22;20013;-75
2023/01/20 03:20:56;;;;;;;25.02;12.32;;;1.10;99.90;;;;;;6313150;22;20308;-76
2023/01/20 03:23:22;;;;;;;27.52;14.13;;;0.90;99.90;;;;;;6263233;22;20014;-76
2023/01/20 03:25:49;;;;;;;27.23;13.23;;;3.70;99.90;;;;;;6288151;22;20006;-75
2023/01/20 03:28:14;;;;;;;26.98;13.40;;;3.30;99.90;;;;;;6288485;22;20284;-75
2023/01/20 03:30:40;;;;;;;22.17;12.13;;;0.40;99.90;;;;;;6289110;22;20006;-75
2023/01/20 03:33:07;;;;;;;30.75;15.60;;;3.80;99.90;;;;;;6287391;22;20014;-77
2023/01/20 03:35:33;;;;;;;27.80;14.13;;;2.80;99.90;;;;;;6289818;22;20062;-75
2023/01/20 03:37:59;;;;;;;30.58;15.27;;;3.10;99.90;;;;;;6290266;22;20425;-75
2023/01/20 03:40:30;;;;;;;30.55;16.02;;;1.10;99.90;;;;;;6289910;22;20022;-75
2023/01/20 03:43:04;;;;;;;27.52;14.45;;;1.10;99.90;;;;;;6290846;22;20018;-76
2023/01/20 03:45:48;;;;;;;32.20;14.40;;;1.00;99.90;;;;;;6315813;22;20025;-75
2023/01/20 03:48:23;;;;;;;33.77;16.73;;;2.30;99.90;;;;;;6316122;22;20018;-77
2023/01/20 03:51:19;;;;;;;30.25;16.33;;;3.70;99.90;;;;;;6314920;22;20448;-78
2023/01/20 03:53:47;;;;;;;;;;;1.10;99.90;;;;;;6317749;22;20011;-76
2023/01/20 03:56:35;;;;;;;27.67;14.55;;;3.00;99.90;;;;;;6288946;22;20318;-75
2023/01/20 03:59:02;;;;;;;33.30;17.15;;;1.10;99.90;;;;;;6314585;22;20022;-76
2023/01/20 04:01:38;;;;;;;36.35;16.65;;;1.70;99.90;;;;;;6315987;22;20347;-76
2023/01/20 04:04:09;;;;;;;32.00;15.98;;;1.20;99.90;;;;;;6289837;22;20077;-75
2023/01/20 04:06:36;;;;;;;32.97;15.95;;;0.90;99.90;;;;;;6310015;22;20055;-75
2023/01/20 04:09:06;;;;;;;38.35;17.27;;;2.60;99.90;;;;;;6258644;22;20206;-75
2023/01/20 04:11:33;;;;;;;32.70;15.52;;;3.30;99.90;;;;;;6284513;22;20007;-75
2023/01/20 04:13:59;;;;;;;34.80;17.98;;;0.80;99.90;;;;;;6283990;22;20015;-76
2023/01/20 04:16:25;;;;;;;33.58;15.95;;;2.90;99.90;;;;;;6309719;22;20193;-76
2023/01/20 04:18:52;;;;;;;38.13;18.15;;;3.30;99.90;;;;;;6309059;22;20012;-76
2023/01/20 04:21:39;;;;;;;41.50;17.98;;;1.10;99.90;;;;;;6285066;22;20011;-79
2023/01/20 04:24:34;;;;;;;35.47;15.70;;;0.80;99.90;;;;;;6285604;22;20090;-76
2023/01/20 04:26:59;;;;;;;38.47;16.10;;;0.80;99.90;;;;;;6252236;22;20512;-76
2023/01/20 04:29:25;;;;;;;38.05;17.13;;;2.20;99.90;;;;;;6310771;22;20026;-80
2023/01/20 04:31:57;;;;;;;31.77;15.60;;;2.30;99.90;;;;;;6286625;22;20038;-77
2023/01/20 04:34:23;;;;;;;29.95;14.73;;;0.80;99.90;;;;;;6285951;22;20210;-77
2023/01/20 04:36:49;;;;;;;39.40;16.38;;;0.80;99.90;;;;;;6261263;22;20014;-77
2023/01/20 04:39:14;;;;;;;32.78;15.35;;;0.80;99.90;;;;;;6310769;22;20591;-79
2023/01/20 04:41:40;;;;;;;33.05;14.15;;;1.90;99.90;;;;;;6287840;22;20018;-78
2023/01/20 04:44:06;;;;;;;34.78;16.55;;;3.20;99.90;;;;;;6286890;22;20305;-78
2023/01/20 04:46:32;;;;;;;32.03;15.30;;;1.00;99.90;;;;;;6285646;22;20019;-78
2023/01/20 04:48:57;;;;;;;28.95;14.07;;;1.80;99.90;;;;;;6311721;22;20011;-79
2023/01/20 04:51:23;;;;;;;32.53;14.77;;;2.20;99.90;;;;;;6258583;22;20022;-78
2023/01/20 04:53:49;;;;;;;33.33;15.82;;;1.00;99.90;;;;;;6258925;22;20008;-79
2023/01/20 04:56:14;;;;;;;30.95;14.50;;;0.70;99.90;;;;;;6284172;22;20033;-77
2023/01/20 04:58:41;;;;;;;34.53;15.07;;;3.00;99.90;;;;;;6259462;22;20050;-78
2023/01/20 05:01:07;;;;;;;34.10;15.30;;;1.30;99.90;;;;;;6258339;22;20026;-78
2023/01/20 05:03:33;;;;;;;35.13;15.20;;;1.60;99.90;;;;;;6260807;22;20068;-78
2023/01/20 05:05:59;;;;;;;26.30;13.38;;;1.40;99.90;;;;;;6264212;22;20020;-78
2023/01/20 05:08:25;;;;;;;34.90;15.15;;;2.40;99.90;;;;;;6291648;22;20050;-78
2023/01/20 05:10:51;;;;;;;31.60;13.65;;;0.60;99.90;;;;;;6290445;22;20010;-78
2023/01/20 05:13:16;;;;;;;30.70;13.02;;;3.60;99.90;;;;;;6289326;22;20006;-78
2023/01/20 05:15:43;;;;;;;29.83;14.20;;;0.70;99.90;;;;;;6265357;22;20253;-78
2023/01/20 05:18:08;;;;;;;29.60;13.63;;;2.80;99.90;;;;;;6289089;22;20482;-78
2023/01/20 05:20:34;;;;;;;30.65;14.50;;;2.40;99.90;;;;;;6290833;22;20023;-79
2023/01/20 05:23:00;;;;;;;30.55;13.55;;;1.60;99.90;;;;;;6288940;22;20017;-79
2023/01/20 05:25:25;;;;;;;30.67;13.45;;;2.70;99.90;;;;;;6263407;22;20247;-78
2023/01/20 05:27:51;;;;;;;28.73;13.32;;;3.60;99.90;;;;;;6265069;22;20018;-77
2023/01/20 05:30:17;;;;;;;28.98;13.45;;;3.50;99.90;;;;;;6317485;22;20267;-78
2023/01/20 05:32:45;;;;;;;33.22;15.48;;;2.90;99.90;;;;;;6289549;22;20022;-77
2023/01/20 05:35:10;;;;;;;23.77;11.52;;;0.60;99.90;;;;;;6290040;22;20070;-78
2023/01/20 05:37:36;;;;;;;26.65;10.88;;;1.20;99.90;;;;;;6290954;22;20021;-78
2023/01/20 05:40:02;;;;;;;22.48;11.60;;;0.80;99.90;;;;;;6289274;22;20433;-77
2023/01/20 05:42:28;;;;;;;29.58;12.93;;;1.00;99.90;;;;;;6289668;22;20019;-78
2023/01/20 05:44:53;;;;;;;27.15;12.60;;;0.70;99.90;;;;;;6316193;22;20011;-77
2023/01/20 05:47:19;;;;;;;37.58;15.98;;;1.00;99.90;;;;;;6264035;22;20038;-78
2023/01/20 05:49:45;;;;;;;35.85;16.95;;;0.90;99.90;;;;;;6314582;22;20398;-78
2023/01/20 05:52:10;;;;;;;33.80;14.35;;;2.00;99.90;;;;;;6265408;22;20168;-78
2023/01/20 05:54:36;;;;;;;31.48;14.13;;;0.60;99.90;;;;;;6265508;22;20006;-79
2023/01/20 05:57:04;;;;;;;33.88;13.90;;;0.70;99.90;;;;;;6291045;22;20006;-78
2023/01/20 05:59:31;;;;;;;37.00;15.55;;;0.70;99.90;;;;;;6315539;22;20346;-78
2023/01/20 06:01:56;;;;;;;34.70;14.98;;;1.00;99.90;;;;;;6316307;22;20109;-78
2023/01/20 06:04:22;;;;;;;34.05;14.88;;;2.90;99.90;;;;;;6264240;22;20038;-78
2023/01/20 06:06:48;;;;;;;29.45;13.38;;;1.00;99.90;;;;;;6258477;22;20034;-78
2023/01/20 06:09:13;;;;;;;26.20;11.88;;;1.90;99.90;;;;;;6235255;22;20290;-79
2023/01/20 06:11:39;;;;;;;29.02;12.20;;;2.60;99.90;;;;;;6261043;22;20007;-79
2023/01/20 06:14:05;;;;;;;32.05;15.23;;;3.70;99.90;;;;;;6260526;22;20282;-79
2023/01/20 06:16:31;;;;;;;32.72;15.00;;;2.80;99.90;;;;;;6233449;22;20061;-79
2023/01/20 06:18:56;;;;;;;26.60;11.50;;;0.80;99.90;;;;;;6259388;22;20019;-79
2023/01/20 06:21:23;;;;;;;28.70;13.27;;;0.70;99.90;;;;;;6285103;22;20011;-79
2023/01/20 06:23:49;;;;;;;27.75;12.75;;;3.00;99.90;;;;;;6259122;22;20041;-78
2023/01/20 06:26:15;;;;;;;36.17;16.70;;;3.30;99.90;;;;;;6284050;22;20026;-79
2023/01/20 06:28:41;;;;;;;29.50;15.10;;;0.90;99.90;;;;;;6259566;22;20035;-79
2023/01/20 06:31:13;;;;;;;30.67;13.35;;;2.30;99.90;;;;;;6283726;22;20046;-79
2023/01/20 06:33:38;;;;;;;26.50;12.50;;;1.20;99.90;;;;;;6285824;22;20062;-78
2023/01/20 06:36:05;;;;;;;28.85;14.38;;;1.30;99.90;;;;;;6283996;22;20007;-77
2023/01/20 06:38:33;;;;;;;25.42;10.57;;;1.20;99.90;;;;;;6234905;22;20062;-78
2023/01/20 06:41:04;;;;;;;24.50;11.50;;;0.60;99.90;;;;;;6261054;22;20015;-78
2023/01/20 06:43:32;;;;;;;30.95;13.73;;;1.00;99.90;;;;;;6261962;22;20056;-78
2023/01/20 06:46:09;;;;;;;23.17;12.13;;;1.20;99.90;;;;;;6261645;22;20198;-79
2023/01/20 06:48:35;;;;;;;27.88;13.15;;;0.90;99.90;;;;;;6287076;22;20019;-80
2023/01/20 06:51:11;;;;;;;24.20;11.18;;;0.80;99.90;;;;;;6261261;22;20008;-77
2023/01/20 06:53:37;;;;;;;26.45;12.85;;;2.50;99.90;;;;;;6259504;22;20029;-77
2023/01/20 06:56:22;;;;;;;27.13;13.90;;;0.70;99.90;;;;;;6283115;22;20309;-77
2023/01/20 06:59:20;;;;;;;31.92;15.13;;;0.40;99.90;;;;;;6252369;22;20050;-79
2023/01/20 07:01:46;;;;;;;26.67;12.90;;;0.70;99.90;;;;;;6258416;22;20015;-78
2023/01/20 07:04:15;;;;;;;26.73;12.88;;;0.00;99.90;;;;;;6282733;22;20048;-77
2023/01/20 07:06:41;;;;;;;25.23;13.10;;;1.10;99.90;;;;;;6284064;22;20019;-78
2023/01/20 07:09:09;;;;;;;33.25;14.98;;;0.00;99.90;;;;;;6258167;22;20015;-78
2023/01/20 07:11:36;;;;;;;15.82;7.90;;;0.40;99.90;;;;;;6283060;22;20015;-79
2023/01/20 07:14:03;;;;;;;27.73;12.63;;;0.40;99.90;;;;;;6260931;22;20018;-78
2023/01/20 07:16:29;;;;;;;30.52;14.55;;;3.20;99.90;;;;;;6257935;22;20029;-78
2023/01/20 07:18:55;;;;;;;22.27;11.85;;;0.90;99.90;;;;;;6259681;22;20309;-78
2023/01/20 07:21:22;;;;;;;29.10;12.95;;;0.20;99.90;;;;;;6283934;22;20018;-77
2023/01/20 07:23:50;;;;;;;27.52;13.00;;;0.90;99.90;;;;;;6284372;22;20019;-77
2023/01/20 07:26:21;;;;;;;29.55;14.27;;;0.80;99.90;;;;;;6257637;22;20026;-76
2023/01/20 07:28:47;;;;;;;27.55;13.35;;;0.90;99.90;;;;;;6260010;22;20014;-77
2023/01/20 07:31:18;;;;;;;29.70;14.77;;;1.10;99.90;;;;;;6234229;22;20332;-75
2023/01/20 07:33:44;;;;;;;28.92;10.98;;;1.50;99.90;;;;;;6286164;22;20011;-77
2023/01/20 07:36:11;;;;;;;34.95;14.98;;;2.40;99.90;;;;;;6283662;22;20090;-77
2023/01/20 07:38:37;;;;;;;34.10;16.40;;;2.50;99.90;;;;;;6283728;22;20019;-76
2023/01/20 07:41:06;;;;;;;30.45;14.20;;;1.70;99.90;;;;;;6257113;22;20078;-76
2023/01/20 07:43:32;;;;;;;31.25;15.20;;;0.80;99.90;;;;;;6257254;22;20069;-77
2023/01/20 07:46:03;;;;;;;32.42;14.90;;;3.40;99.90;;;;;;6283035;22;20070;-76
2023/01/20 07:48:55;;;;;;;35.83;17.17;;;1.00;99.90;;;;;;6281223;22;20061;-78
2023/01/20 07:51:23;;;;;;;34.33;14.82;;;0.90;99.90;;;;;;6210902;22;20201;-78
2023/01/20 07:54:16;;;;;;;34.85;15.30;;;0.80;99.90;;;;;;6256859;22;20027;-77
2023/01/20 07:56:41;;;;;;;33.33;14.75;;;2.50;99.90;;;;;;6244007;22;20489;-77
2023/01/20 07:59:54;;;;;;;32.03;15.30;;;1.20;99.90;;;;;;6256054;22;20019;-78
2023/01/20 08:02:20;;;;;;;30.80;15.13;;;1.60;99.90;;;;;;6225293;22;20018;-78
2023/01/20 08:04:46;;;;;;;27.48;13.00;;;1.10;99.90;;;;;;6232655;22;20291;-76
2023/01/20 08:07:11;;;;;;;32.38;14.93;;;1.70;99.90;;;;;;6265396;22;20027;-77
2023/01/20 08:09:39;;;;;;;37.72;17.25;;;1.20;99.90;;;;;;6285426;22;20023;-77
2023/01/20 08:12:48;;;;;;;37.97;17.42;;;1.10;99.90;;;;;;6259696;22;20047;-77
2023/01/20 08:15:14;;;;;;;24.15;13.10;;;1.40;99.90;;;;;;6258266;22;20014;-75
2023/01/20 08:17:39;;;;;;;37.45;17.80;;;2.10;99.90;;;;;;6282181;22;20015;-77
2023/01/20 08:20:08;;;;;;;30.98;15.00;;;3.40;99.90;;;;;;6256598;22;20019;-76
2023/01/20 08:22:34;;;;;;;30.90;15.15;;;0.90;99.90;;;;;;6308499;22;20330;-76
2023/01/20 08:25:00;;;;;;;32.10;15.82;;;1.00;99.90;;;;;;6283474;22;20062;-76
2023/01/20 08:27:28;;;;;;;43.55;19.50;;;0.60;99.90;;;;;;6255997;22;20015;-76
2023/01/20 08:29:56;;;;;;;39.85;17.85;;;0.90;99.90;;;;;;6256580;22;20325;-78
2023/01/20 08:32:22;;;;;;;37.95;18.50;;;1.60;99.90;;;;;;6282714;22;20022;-77
2023/01/20 08:34:54;;;;;;;31.85;14.23;;;0.20;99.90;;;;;;6259494;22;20007;-77
2023/01/20 08:37:20;;;;;;;38.47;17.75;;;1.10;99.90;;;;;;6258570;22;20015;-77
2023/01/20 08:39:58;;;;;;;27.20;14.38;;;1.10;99.90;;;;;;6260064;22;20011;-77
2023/01/20 08:42:27;;;;;;;37.38;19.17;;;0.60;99.90;;;;;;6285289;22;20056;-79
2023/01/20 08:44:52;;;;;;;36.53;17.13;;;3.70;99.90;;;;;;6259420;22;20011;-76
2023/01/20 08:47:18;;;;;;;39.58;17.70;;;3.40;99.90;;;;;;6259692;22;20070;-77
2023/01/20 08:49:44;;;;;;;36.95;17.65;;;1.40;99.90;;;;;;6284196;22;20277;-78
2023/01/20 08:52:09;;;;;;;36.58;16.95;;;1.10;99.90;;;;;;6258219;22;20039;-78
2023/01/20 08:54:35;;;;;;;29.17;14.13;;;1.20;99.90;;;;;;6258387;22;20042;-77
2023/01/20 08:57:01;;;;;;;34.03;15.38;;;4.00;99.90;;;;;;6258829;22;20007;-77
2023/01/20 08:59:26;;;;;;;36.22;17.88;;;2.60;99.90;;;;;;6257756;22;20070;-79
2023/01/20 09:01:56;;;;;;;30.50;15.35;;;1.30;99.90;;;;;;6310562;22;20230;-78
2023/01/20 09:04:23;;;;;;;36.92;17.20;;;1.30;99.90;;;;;;6280562;22;20011;-78
2023/01/20 09:06:49;;;;;;;32.90;15.07;;;1.00;99.90;;;;;;6254318;22;20042;-78
2023/01/20 09:09:16;;;;;;;34.35;15.30;;;1.30;99.90;;;;;;6254682;22;20027;-78
2023/01/20 09:11:49;;;;;;;34.45;17.35;;;1.10;99.90;;;;;;6232700;22;20029;-75
2023/01/20 09:14:23;;;;;;;26.08;14.02;;;1.10;99.90;;;;;;6232666;22;20037;-76
2023/01/20 09:17:00;;;;;;;38.88;18.67;;;2.50;99.90;;;;;;6283093;22;20014;-77
2023/01/20 09:19:26;;;;;;;41.90;18.95;;;3.60;99.90;;;;;;6233644;22;20073;-76
2023/01/20 09:21:51;;;;;;;34.10;18.00;;;1.40;99.90;;;;;;6258520;22;20014;-76
2023/01/20 09:24:17;;;;;;;36.95;17.38;;;2.70;99.90;;;;;;6257533;22;20111;-78
2023/01/20 09:26:55;;;;;;;39.92;18.75;;;1.20;99.90;;;;;;6258663;22;20019;-77
2023/01/20 09:29:21;;;;;;;36.33;18.45;;;1.20;99.90;;;;;;6232074;22;20011;-77
2023/01/20 09:31:52;;;;;;;37.13;17.90;;;1.30;99.90;;;;;;6258819;22;20061;-76
2023/01/20 09:34:23;;;;;;;30.30;14.63;;;1.30;99.90;;;;;;6256857;22;20037;-76
2023/01/20 09:45:43;;;;;;;40.10;19.80;;;1.40;99.90;;;;;;6276504;22;20086;-73
2023/01/20 09:54:01;;;;;;;35.42;17.38;;;1.40;99.90;;;;;;6285329;22;20019;-75
2023/01/20 09:56:29;;;;;;;44.67;19.80;;;2.30;99.90;;;;;;6282440;22;20088;-75
2023/01/20 09:59:09;;;;;;;42.33;19.52;;;3.70;99.90;;;;;;6230306;22;20007;-74
2023/01/20 10:01:43;;;;;;;36.13;17.15;;;1.30;99.90;;;;;;6259088;22;20022;-76
2023/01/20 10:04:18;;;;;;;43.58;20.95;;;1.90;99.90;;;;;;6286525;22;20011;-77
2023/01/20 10:06:48;;;;;;;45.28;20.25;;;1.30;99.90;;;;;;6264975;22;20015;-75
2023/01/20 10:09:27;;;;;;;27.17;12.60;;;1.60;99.90;;;;;;6318243;22;20074;-73
2023/01/20 10:12:00;;;;;;;41.08;17.35;;;1.50;99.90;;;;;;6292267;22;20021;-75
2023/01/20 10:14:40;;;;;;;35.63;17.35;;;1.90;99.90;;;;;;6291875;22;20015;-76
2023/01/20 10:17:49;;;;;;;39.60;19.75;;;1.50;99.90;;;;;;6316861;22;20014;-78
2023/01/20 10:20:26;;;;;;;44.53;20.08;;;1.50;99.90;;;;;;6274525;22;20014;-77
2023/01/20 10:23:04;;;;;;;39.05;17.27;;;2.30;99.90;;;;;;6292397;22;20046;-75
2023/01/20 10:25:49;;;;;;;38.05;19.13;;;1.40;99.90;;;;;;6318172;22;20013;-74
2023/01/20 10:28:25;;;;;;;43.88;20.67;;;1.50;99.90;;;;;;6290790;22;20194;-76
2023/01/20 10:30:50;;;;;;;42.58;21.95;;;1.30;99.90;;;;;;6291446;22;20208;-77
2023/01/20 10:33:30;;;;;;;36.35;18.27;;;1.50;99.90;;;;;;6289848;22;20040;-73
2023/01/20 10:36:02;;;;;;;40.00;19.92;;;3.20;99.90;;;;;;6316242;22;20371;-74
2023/01/20 10:38:37;;;;;;;44.10;20.00;;;1.60;99.90;;;;;;6290078;22;20015;-76
2023/01/20 10:41:30;;;;;;;45.10;20.52;;;1.60;99.90;;;;;;6290704;22;20062;-76
2023/01/20 10:43:57;;;;;;;41.58;19.42;;;1.40;99.90;;;;;;6315142;22;20021;-77
2023/01/20 10:47:19;;;;;;;34.80;14.45;;;1.60;99.90;;;;;;6289397;22;20362;-77
2023/01/20 10:50:00;;;;;;;43.08;20.55;;;1.50;99.90;;;;;;6285450;22;20018;-73
2023/01/20 10:52:45;;;;;;;40.33;17.98;;;1.60;99.90;;;;;;6315458;22;20106;-74
2023/01/20 10:55:42;;;;;;;34.60;17.15;;;1.60;99.90;;;;;;6316057;22;20120;-74
2023/01/20 10:58:17;;;;;;;40.15;18.40;;;1.50;99.90;;;;;;6290353;22;20022;-76
2023/01/20 11:04:19;;;;;;;41.83;19.33;;;3.20;99.90;;;;;;6276264;22;20040;-78
2023/01/20 11:07:07;;;;;;;38.72;18.25;;;1.30;99.90;;;;;;6287905;22;20065;-76
2023/01/20 11:13:38;;;;;;;28.67;14.23;;;1.20;99.90;;;;;;6191677;23;20353;-73
2023/01/20 11:16:15;;;;;;;40.75;18.20;;;1.40;99.90;;;;;;6311872;22;20062;-77
2023/01/20 11:18:41;;;;;;;40.72;16.95;;;1.30;99.90;;;;;;6314778;22;20186;-75
2023/01/20 11:21:11;;;;;;;37.97;18.20;;;2.30;99.90;;;;;;6289087;22;20484;-75
2023/01/20 11:24:14;;;;;;;42.75;18.20;;;1.50;99.90;;;;;;6315097;22;20198;-78
2023/01/20 11:26:40;;;;;;;36.05;15.90;;;1.40;99.90;;;;;;6229927;22;20088;-73
2023/01/20 11:29:09;;;;;;;42.78;20.17;;;3.60;99.90;;;;;;6262820;22;20360;-74
2023/01/20 11:31:44;;;;;;;39.42;17.50;;;1.40;99.90;;;;;;6288568;22;20003;-75
2023/01/20 11:34:21;;;;;;;;;;;1.40;99.90;;;;;;6314525;22;20269;-75
2023/01/20 11:36:48;;;;;;;45.33;19.95;;;1.20;99.90;;;;;;6315483;22;19933;-77
2023/01/20 11:39:41;;;;;;;37.03;16.13;;;2.50;99.90;;;;;;6314553;22;20014;-77
2023/01/20 11:42:13;;;;;;;31.38;15.43;;;1.50;99.90;;;;;;6288394;22;20332;-74
2023/01/20 11:44:46;;;;;;;43.58;18.80;;;1.50;99.90;;;;;;6288596;22;20034;-76
2023/01/20 11:47:35;;;;;;;39.72;17.55;;;2.50;99.90;;;;;;6314820;22;20077;-79
2023/01/20 11:53:23;;;;;;;;;;;1.40;99.90;;;;;;6339629;22;20209;-75
2023/01/20 11:55:50;;;;;;;41.60;17.73;;;1.20;99.90;;;;;;6289068;22;19910;-77
2023/01/20 11:58:23;;;;;;;39.42;16.52;;;1.60;99.90;;;;;;6289058;22;20325;-77
2023/01/20 12:01:04;;;;;;;34.70;15.40;;;1.50;99.90;;;;;;6314086;22;20034;-75
2023/01/20 12:07:33;;;;;;;36.75;17.70;;;3.40;99.90;;;;;;6244313;23;20028;-75
2023/01/20 12:10:21;;;;;;;32.47;14.02;;;1.50;99.90;;;;;;6220567;23;20026;-77
2023/01/20 12:12:56;;;;;;;38.42;16.63;;;1.40;99.90;;;;;;6220459;23;20011;-75
2023/01/20 12:15:53;;;;;;;30.52;12.10;;;1.90;99.90;;;;;;6218134;23;20409;-76
2023/01/20 12:18:36;;;;;;;44.08;17.90;;;1.40;99.90;;;;;;6199939;23;20016;-75
2023/01/20 12:21:16;;;;;;;33.17;14.18;;;1.30;99.90;;;;;;6219742;23;20008;-78
2023/01/20 12:24:01;;;;;;;34.72;17.67;;;1.40;99.90;;;;;;6221501;23;20008;-77
2023/01/20 12:26:27;;;;;;;33.90;15.43;;;3.40;99.90;;;;;;6221844;23;20190;-76
2023/01/20 12:28:53;;;;;;;44.55;19.05;;;2.40;99.90;;;;;;6221306;23;20012;-76
2023/01/20 12:31:22;;;;;;;40.38;18.98;;;1.20;99.90;;;;;;6220319;23;20291;-70
2023/01/20 12:33:50;;;;;;;41.78;16.25;;;1.60;99.90;;;;;;6220242;23;20147;-69
2023/01/20 12:36:37;;;;;;;38.50;16.17;;;1.50;99.90;;;;;;6219511;23;20237;-69
2023/01/20 12:39:29;;;;;;;36.20;14.55;;;1.40;99.90;;;;;;6272027;22;20019;-71
2023/01/20 12:42:26;;;;;;;41.92;19.30;;;1.60;99.90;;;;;;6283755;22;20179;-70
2023/01/20 12:45:01;;;;;;;44.13;19.40;;;1.50;99.90;;;;;;6257017;22;20011;-71
2023/01/20 12:48:11;;;;;;;36.50;16.58;;;1.50;99.90;;;;;;6282423;22;20078;-69
2023/01/20 12:50:59;;;;;;;43.97;19.23;;;1.30;99.90;;;;;;6215540;22;20023;-69
2023/01/20 12:53:29;;;;;;;38.63;17.98;;;1.30;99.90;;;;;;6285454;22;20070;-69
2023/01/20 12:56:16;;;;;;;32.47;15.05;;;1.20;99.90;;;;;;6284446;22;20011;-68
2023/01/20 12:59:15;;;;;;;37.38;15.07;;;1.30;99.90;;;;;;6284917;22;20411;-68
2023/01/20 13:02:12;;;;;;;34.20;14.85;;;1.30;99.90;;;;;;6259839;22;20052;-68
2023/01/20 13:05:09;;;;;;;38.78;18.23;;;1.50;99.90;;;;;;6284128;22;20019;-69
2023/01/20 13:07:46;;;;;;;41.00;19.13;;;1.50;99.90;;;;;;6294453;22;20321;-69
2023/01/20 13:10:18;;;;;;;41.90;18.95;;;1.40;99.90;;;;;;6251507;22;20027;-68
2023/01/20 13:12:54;;;;;;;40.05;18.65;;;1.40;99.90;;;;;;6227823;22;20018;-68
2023/01/20 13:15:25;;;;;;;35.08;15.73;;;1.60;99.90;;;;;;6254054;22;20061;-68
2023/01/20 13:18:15;;;;;;;39.20;16.83;;;1.40;99.90;;;;;;6251524;22;20281;-68
2023/01/20 13:20:44;;;;;;;32.72;13.40;;;1.40;99.90;;;;;;6251290;22;20020;-69
2023/01/20 13:23:16;;;;;;;39.70;16.55;;;1.40;99.90;;;;;;6252919;22;20012;-68
2023/01/20 13:25:47;;;;;;;35.95;17.42;;;1.70;99.90;;;;;;6252822;22;20011;-74
2023/01/20 13:28:36;;;;;;;32.95;13.88;;;1.70;99.90;;;;;;6202729;22;20011;-73
2023/01/20 13:31:37;;;;;;;36.35;17.55;;;1.50;99.90;;;;;;6207422;22;20290;-74
2023/01/20 13:34:20;;;;;;;36.58;16.95;;;1.30;99.90;;;;;;6253450;22;20035;-76
2023/01/20 13:37:24;;;;;;;31.13;13.68;;;1.50;99.90;;;;;;6226809;22;20007;-75
2023/01/20 13:39:52;;;;;;;35.13;14.55;;;1.40;99.90;;;;;;6253451;22;20047;-74